Time;durP1;ratioP1;P1;durP2;ratioP2;P2;SDS_P1;SDS_P2;PMS_P1;PMS_P2;Temp;Humidity;BMP_temperature;BMP_pressure;BME280_temperature;BME280_humidity;BME280_pressure;Samples;Min_cycle;Max_cycle;Signal;HPM_P1;HPM_P2
2021/04/19 00:01:21;;;;;;;16.80;8.98;;;5.80;99.90;;;;;;5020378;28;20544;-73
2021/04/19 00:03:46;;;;;;;17.73;9.88;;;5.80;99.90;;;;;;5025288;28;20108;-72
2021/04/19 00:06:30;;;;;;;14.45;8.75;;;5.70;99.90;;;;;;5024424;28;20088;-72
2021/04/19 00:08:58;;;;;;;18.15;8.95;;;5.80;99.90;;;;;;5029327;28;20024;-72
2021/04/19 00:11:24;;;;;;;14.82;8.25;;;5.90;99.90;;;;;;5022821;28;20025;-72
2021/04/19 00:13:50;;;;;;;14.13;7.93;;;5.90;99.90;;;;;;5027329;28;20037;-72
2021/04/19 00:16:15;;;;;;;19.83;8.82;;;6.00;99.90;;;;;;5025759;28;20361;-72
2021/04/19 00:18:41;;;;;;;17.58;9.38;;;6.10;99.90;;;;;;5026998;28;20440;-72
2021/04/19 00:21:12;;;;;;;20.70;9.77;;;6.10;99.90;;;;;;5022720;28;20064;-72
2021/04/19 00:23:37;;;;;;;23.88;9.52;;;6.20;99.90;;;;;;5025460;28;20792;-73
2021/04/19 00:26:03;;;;;;;44.95;10.48;;;6.30;99.90;;;;;;5024530;28;20108;-73
2021/04/19 00:28:29;;;;;;;54.47;10.82;;;6.30;99.90;;;;;;5028194;28;20071;-72
2021/04/19 00:30:55;;;;;;;53.53;10.98;;;6.30;99.90;;;;;;5025767;28;20708;-73
2021/04/19 00:33:20;;;;;;;61.53;11.13;;;6.40;99.90;;;;;;5023709;28;20029;-72
2021/04/19 00:35:46;;;;;;;44.30;11.02;;;6.40;99.90;;;;;;5022400;28;20552;-72
2021/04/19 00:38:12;;;;;;;36.17;11.27;;;6.50;99.90;;;;;;5020715;28;20109;-73
2021/04/19 00:40:39;;;;;;;45.03;11.25;;;6.50;99.90;;;;;;5025737;28;20030;-73
2021/04/19 00:43:05;;;;;;;94.40;11.10;;;6.60;99.90;;;;;;5024103;28;20419;-72
2021/04/19 00:45:32;;;;;;;26.80;11.85;;;6.60;99.90;;;;;;5020137;28;20567;-72
2021/04/19 00:47:57;;;;;;;29.08;11.60;;;6.60;99.90;;;;;;5005143;28;20121;-72
2021/04/19 00:50:28;;;;;;;31.33;10.35;;;6.60;99.90;;;;;;5024114;28;20046;-72
2021/04/19 00:53:10;;;;;;;39.83;10.80;;;6.60;99.90;;;;;;5024407;28;20033;-72
2021/04/19 00:55:36;;;;;;;51.58;10.75;;;6.70;99.90;;;;;;5026632;28;20065;-72
2021/04/19 00:58:02;;;;;;;48.72;10.98;;;6.80;99.90;;;;;;5024036;28;20029;-72
2021/04/19 01:00:33;;;;;;;48.38;10.18;;;6.80;99.90;;;;;;5025156;28;20516;-73
2021/04/19 01:02:59;;;;;;;43.28;10.77;;;6.80;99.90;;;;;;5023466;28;20026;-73
2021/04/19 01:05:28;;;;;;;45.83;11.50;;;6.70;99.90;;;;;;5025219;28;20029;-72
2021/04/19 01:07:54;;;;;;;68.03;11.85;;;6.70;99.90;;;;;;5025271;28;20033;-72
2021/04/19 01:10:20;;;;;;;53.42;11.18;;;6.60;99.90;;;;;;5025006;28;20040;-73
2021/04/19 01:12:45;;;;;;;56.72;10.25;;;6.70;99.90;;;;;;5024537;28;20033;-72
2021/04/19 01:15:14;;;;;;;43.50;10.48;;;6.70;99.90;;;;;;5023858;28;20112;-73
2021/04/19 01:17:41;;;;;;;57.22;11.55;;;6.70;99.90;;;;;;5025282;28;20091;-73
2021/04/19 01:20:18;;;;;;;50.45;10.35;;;6.70;99.90;;;;;;5023069;28;20030;-72
2021/04/19 01:22:44;;;;;;;47.35;11.32;;;6.80;99.90;;;;;;5023285;28;20124;-72
2021/04/19 01:25:15;;;;;;;47.58;10.38;;;6.80;99.90;;;;;;5024197;28;20048;-72
2021/04/19 01:27:40;;;;;;;43.80;11.23;;;6.80;99.90;;;;;;5020637;28;20045;-73
2021/04/19 01:30:06;;;;;;;49.53;12.05;;;6.80;99.90;;;;;;5020564;28;20038;-72
2021/04/19 01:32:34;;;;;;;30.88;11.52;;;6.70;99.90;;;;;;5025380;28;20042;-72
2021/04/19 01:35:00;;;;;;;98.00;12.93;;;6.70;99.90;;;;;;5012051;28;20029;-73
2021/04/19 01:37:25;;;;;;;42.13;11.27;;;6.70;99.90;;;;;;5024594;28;20160;-72
2021/04/19 01:39:51;;;;;;;38.78;11.00;;;6.70;99.90;;;;;;5024500;28;20037;-73
2021/04/19 01:42:17;;;;;;;41.42;11.00;;;6.70;99.90;;;;;;5025523;28;20032;-73
2021/04/19 01:44:42;;;;;;;39.10;11.15;;;6.60;99.90;;;;;;5026899;28;20030;-72
2021/04/19 01:47:08;;;;;;;49.97;11.02;;;6.60;99.90;;;;;;5023510;28;20080;-73
2021/04/19 01:49:33;;;;;;;71.78;11.70;;;6.60;99.90;;;;;;5018022;28;20036;-73
2021/04/19 01:52:00;;;;;;;59.17;11.10;;;6.70;99.90;;;;;;5025339;28;20025;-72
2021/04/19 01:54:26;;;;;;;94.80;11.70;;;6.70;99.90;;;;;;5026089;28;20064;-72
2021/04/19 01:56:52;;;;;;;18.30;11.00;;;6.70;99.90;;;;;;5029457;28;20057;-72
2021/04/19 01:59:19;;;;;;;32.55;10.23;;;6.70;99.90;;;;;;5027295;28;20029;-72
2021/04/19 02:02:00;;;;;;;52.80;9.80;;;6.70;99.90;;;;;;5029281;28;20041;-72
2021/04/19 02:04:39;;;;;;;33.20;10.07;;;6.60;99.90;;;;;;5025104;28;20025;-72
2021/04/19 02:07:21;;;;;;;44.92;10.38;;;6.60;99.90;;;;;;5026193;28;20084;-72
2021/04/19 02:10:10;;;;;;;36.17;10.60;;;6.70;99.90;;;;;;5026098;28;20033;-72
2021/04/19 02:12:51;;;;;;;26.30;10.32;;;6.70;99.90;;;;;;5028432;28;20108;-72
2021/04/19 02:15:42;;;;;;;41.42;10.27;;;6.70;99.90;;;;;;5024641;28;20029;-72
2021/04/19 02:18:26;;;;;;;59.05;9.80;;;6.70;99.90;;;;;;5023925;28;20105;-72
2021/04/19 02:21:01;;;;;;;41.72;9.85;;;6.70;99.90;;;;;;5023612;28;20492;-73
2021/04/19 02:23:40;;;;;;;31.80;9.77;;;6.60;99.90;;;;;;5012817;28;20061;-73
2021/04/19 02:26:10;;;;;;;55.58;10.48;;;6.70;99.90;;;;;;5025930;28;20116;-73
2021/04/19 02:28:40;;;;;;;46.33;10.68;;;6.70;99.90;;;;;;5027135;28;20030;-73
2021/04/19 02:31:10;;;;;;;74.10;10.73;;;6.60;99.90;;;;;;5028298;28;20075;-73
2021/04/19 02:33:39;;;;;;;36.53;10.15;;;6.60;99.90;;;;;;5027073;28;20485;-73
2021/04/19 02:36:08;;;;;;;32.88;10.27;;;6.60;99.90;;;;;;5035814;28;20048;-73
2021/04/19 02:38:36;;;;;;;74.82;9.93;;;6.70;99.90;;;;;;5027028;28;20037;-72
2021/04/19 02:41:04;;;;;;;23.85;9.10;;;6.70;99.90;;;;;;5026735;28;20480;-73
2021/04/19 02:43:33;;;;;;;58.88;10.63;;;6.70;99.90;;;;;;5028650;28;20033;-73
2021/04/19 02:46:00;;;;;;;33.85;10.13;;;6.60;99.90;;;;;;5027818;28;20068;-73
2021/04/19 02:48:26;;;;;;;45.45;10.02;;;6.60;99.90;;;;;;5025317;28;20037;-73
2021/04/19 02:51:03;;;;;;;26.60;10.25;;;6.70;99.90;;;;;;5021247;28;20388;-73
2021/04/19 02:53:29;;;;;;;24.70;9.73;;;6.70;99.90;;;;;;5025356;28;20137;-73
2021/04/19 02:55:55;;;;;;;19.45;10.20;;;6.60;99.90;;;;;;5026146;28;20547;-73
2021/04/19 02:58:51;;;;;;;26.83;10.38;;;6.70;99.90;;;;;;5026906;28;20068;-73
2021/04/19 03:01:24;;;;;;;30.85;9.77;;;6.70;99.90;;;;;;5017580;28;20112;-73
2021/04/19 03:03:51;;;;;;;21.65;10.23;;;6.50;99.90;;;;;;5027379;28;20948;-73
2021/04/19 03:06:18;;;;;;;37.97;11.15;;;6.50;99.90;;;;;;5027779;28;20407;-73
2021/04/19 03:08:51;;;;;;;37.15;10.95;;;6.50;99.90;;;;;;5025205;28;20249;-73
2021/04/19 03:11:30;;;;;;;27.98;10.25;;;6.60;99.90;;;;;;5029055;28;20021;-73
2021/04/19 03:13:58;;;;;;;41.85;10.45;;;6.50;99.90;;;;;;5022909;28;20042;-73
2021/04/19 03:16:25;;;;;;;33.63;10.45;;;6.50;99.90;;;;;;5021803;28;20703;-73
2021/04/19 03:18:52;;;;;;;35.17;10.20;;;6.50;99.90;;;;;;5026248;28;20040;-73
2021/04/19 03:21:23;;;;;;;22.92;10.02;;;6.50;99.90;;;;;;5025976;28;20030;-73
2021/04/19 03:23:51;;;;;;;13.13;9.97;;;6.40;99.90;;;;;;5025250;28;20033;-73
2021/04/19 03:26:18;;;;;;;36.22;10.30;;;6.50;99.90;;;;;;5021519;28;20316;-73
2021/04/19 03:28:54;;;;;;;26.15;9.85;;;6.50;99.90;;;;;;5027049;28;20515;-73
2021/04/19 03:31:29;;;;;;;21.60;10.15;;;6.40;99.90;;;;;;5026402;28;20053;-73
2021/04/19 03:34:03;;;;;;;35.28;9.57;;;6.50;99.90;;;;;;5028025;28;20032;-73
2021/04/19 03:36:33;;;;;;;56.92;11.10;;;6.50;99.90;;;;;;5029522;28;20025;-73
2021/04/19 03:39:00;;;;;;;37.65;10.77;;;6.50;99.90;;;;;;5009599;28;20089;-73
2021/04/19 03:41:38;;;;;;;18.48;9.88;;;6.40;99.90;;;;;;5025689;28;20029;-72
2021/04/19 03:44:05;;;;;;;23.52;9.68;;;6.50;99.90;;;;;;5025055;28;20034;-73
2021/04/19 03:46:35;;;;;;;32.13;10.40;;;6.50;99.90;;;;;;5026130;28;20028;-73
2021/04/19 03:49:11;;;;;;;39.22;11.20;;;6.50;99.90;;;;;;5026098;28;20087;-73
2021/04/19 03:51:38;;;;;;;41.53;10.82;;;6.50;99.90;;;;;;5026492;28;20026;-73
2021/04/19 03:54:05;;;;;;;80.82;11.57;;;6.60;99.90;;;;;;5028060;28;20202;-73
2021/04/19 03:56:33;;;;;;;102.68;12.18;;;6.60;99.90;;;;;;5026629;28;20464;-73
2021/04/19 03:59:00;;;;;;;41.00;11.38;;;6.60;99.90;;;;;;5024593;28;20059;-73
2021/04/19 04:01:27;;;;;;;66.85;11.77;;;6.70;99.90;;;;;;5025032;28;20025;-73
2021/04/19 04:03:54;;;;;;;76.95;11.32;;;6.70;99.90;;;;;;5024727;28;20025;-72
2021/04/19 04:06:21;;;;;;;42.72;12.27;;;6.70;99.90;;;;;;5027571;28;20467;-73
2021/04/19 04:08:47;;;;;;;40.92;11.98;;;6.70;99.90;;;;;;5021963;28;20384;-73
2021/04/19 04:11:13;;;;;;;30.70;11.82;;;6.80;99.90;;;;;;5025005;28;20021;-73
2021/04/19 04:13:39;;;;;;;53.63;12.38;;;6.80;99.90;;;;;;5024171;28;20025;-73
2021/04/19 04:16:05;;;;;;;60.92;12.52;;;6.80;99.90;;;;;;5024680;28;20042;-73
2021/04/19 04:18:30;;;;;;;51.10;12.20;;;6.90;99.90;;;;;;5028092;28;20515;-73
2021/04/19 04:20:56;;;;;;;47.22;11.90;;;7.00;99.90;;;;;;5024417;28;20041;-73
2021/04/19 04:23:22;;;;;;;39.47;12.10;;;7.00;99.90;;;;;;5024273;28;20432;-73
2021/04/19 04:25:48;;;;;;;35.60;11.68;;;7.00;99.90;;;;;;5020471;28;20021;-73
2021/04/19 04:28:14;;;;;;;28.80;11.73;;;6.90;99.90;;;;;;5007834;28;20029;-73
2021/04/19 04:30:40;;;;;;;30.45;11.85;;;6.90;99.90;;;;;;5024877;28;20053;-73
2021/04/19 04:33:07;;;;;;;50.05;11.50;;;6.90;99.90;;;;;;5025025;28;20079;-72
2021/04/19 04:35:34;;;;;;;29.17;11.20;;;6.90;99.90;;;;;;5028327;28;20025;-72
2021/04/19 04:38:00;;;;;;;35.08;11.63;;;6.90;99.90;;;;;;5018888;28;20048;-72
2021/04/19 04:40:27;;;;;;;31.50;11.38;;;6.90;99.90;;;;;;5021208;28;20043;-71
2021/04/19 04:43:22;;;;;;;103.25;13.40;;;7.00;99.90;;;;;;5026009;28;20091;-72
2021/04/19 04:45:52;;;;;;;60.28;11.77;;;7.00;99.90;;;;;;5024653;28;20053;-72
2021/04/19 04:48:33;;;;;;;36.63;11.90;;;7.10;99.90;;;;;;5027474;28;20147;-72
2021/04/19 04:51:08;;;;;;;34.45;11.60;;;7.10;99.90;;;;;;5023952;28;20029;-72
2021/04/19 04:53:44;;;;;;;38.67;11.73;;;7.10;99.90;;;;;;5027110;28;20075;-72
2021/04/19 04:56:25;;;;;;;35.72;11.43;;;7.20;99.90;;;;;;5028181;28;20048;-73
2021/04/19 04:58:54;;;;;;;48.38;11.55;;;7.20;99.90;;;;;;5022758;28;20171;-72
2021/04/19 05:01:22;;;;;;;36.30;11.73;;;7.20;99.90;;;;;;5023940;28;20034;-72
2021/04/19 05:03:48;;;;;;;56.15;12.13;;;7.20;99.90;;;;;;5023079;28;20030;-72
2021/04/19 05:06:15;;;;;;;35.58;12.80;;;7.20;99.90;;;;;;5026270;28;20033;-72
2021/04/19 05:08:41;;;;;;;24.15;11.60;;;7.30;99.90;;;;;;5024481;28;20025;-73
2021/04/19 05:11:08;;;;;;;20.98;11.98;;;7.30;99.90;;;;;;5026185;28;20022;-72
2021/04/19 05:13:33;;;;;;;26.77;11.50;;;7.30;99.90;;;;;;5020847;28;20040;-72
2021/04/19 05:15:59;;;;;;;20.45;11.73;;;7.40;99.90;;;;;;5023809;28;20033;-73
2021/04/19 05:18:27;;;;;;;30.23;11.32;;;7.50;99.90;;;;;;5024026;28;20035;-74
2021/04/19 05:20:54;;;;;;;21.55;11.02;;;7.50;99.90;;;;;;5026676;28;20082;-75
2021/04/19 05:23:19;;;;;;;49.10;12.63;;;7.50;99.90;;;;;;5025096;28;20022;-75
2021/04/19 05:25:46;;;;;;;29.70;11.77;;;7.50;99.90;;;;;;5020598;28;20124;-76
2021/04/19 05:28:12;;;;;;;23.65;13.10;;;7.60;99.90;;;;;;5028159;28;20037;-75
2021/04/19 05:30:39;;;;;;;25.80;13.23;;;7.50;99.90;;;;;;5023825;28;20037;-82
2021/04/19 05:33:05;;;;;;;21.10;12.63;;;7.50;99.90;;;;;;5026111;28;20041;-74
2021/04/19 05:35:33;;;;;;;35.47;12.20;;;7.50;99.90;;;;;;5029623;28;20027;-73
2021/04/19 05:37:59;;;;;;;22.20;12.55;;;7.50;99.90;;;;;;5029383;28;20075;-74
2021/04/19 05:40:31;;;;;;;22.63;12.13;;;7.70;99.90;;;;;;5029391;28;20095;-73
2021/04/19 05:42:57;;;;;;;21.67;12.45;;;7.60;99.90;;;;;;5030665;28;20487;-73
2021/04/19 05:45:24;;;;;;;19.83;12.10;;;7.60;99.90;;;;;;5028119;28;20099;-73
2021/04/19 05:47:50;;;;;;;19.80;11.85;;;7.60;99.90;;;;;;5027979;28;20509;-73
2021/04/19 05:50:22;;;;;;;18.48;11.75;;;7.70;99.90;;;;;;5029254;28;20490;-74
2021/04/19 05:52:51;;;;;;;16.08;11.20;;;7.70;99.90;;;;;;5025428;28;20033;-73
2021/04/19 05:55:18;;;;;;;17.05;11.20;;;7.60;99.90;;;;;;5026973;28;20044;-73
2021/04/19 05:58:05;;;;;;;17.95;11.30;;;7.70;99.90;;;;;;5030719;28;20045;-74
2021/04/19 06:00:44;;;;;;;16.20;10.80;;;7.60;99.90;;;;;;5023319;28;20095;-73
2021/04/19 06:03:19;;;;;;;17.40;11.32;;;7.60;99.90;;;;;;5029692;28;20561;-74
2021/04/19 06:06:12;;;;;;;18.25;10.85;;;7.60;99.90;;;;;;5021003;28;20061;-74
2021/04/19 06:08:49;;;;;;;18.30;10.70;;;7.60;99.90;;;;;;5027589;28;20073;-75
2021/04/19 06:11:22;;;;;;;16.95;11.02;;;7.60;99.90;;;;;;5026146;28;20503;-72
2021/04/19 06:13:51;;;;;;;16.60;11.50;;;7.60;99.90;;;;;;5027287;28;20037;-72
2021/04/19 06:16:18;;;;;;;17.77;11.38;;;7.70;99.90;;;;;;5027232;28;20048;-74
2021/04/19 06:18:45;;;;;;;22.75;11.63;;;7.80;99.90;;;;;;5029488;28;20037;-73
2021/04/19 06:21:12;;;;;;;21.60;12.18;;;7.80;99.90;;;;;;5028489;28;20028;-73
2021/04/19 06:23:40;;;;;;;18.65;12.05;;;7.90;99.90;;;;;;5027283;28;20163;-74
2021/04/19 06:26:07;;;;;;;27.77;11.93;;;8.00;99.90;;;;;;5024625;28;20724;-73
2021/04/19 06:28:33;;;;;;;19.38;11.60;;;8.20;99.90;;;;;;5028048;28;20034;-72
2021/04/19 06:30:59;;;;;;;20.25;11.88;;;8.20;99.90;;;;;;5026654;28;20041;-72
2021/04/19 06:33:26;;;;;;;20.30;11.63;;;8.20;99.90;;;;;;5029293;28;20649;-73
2021/04/19 06:35:52;;;;;;;17.55;11.25;;;8.40;99.90;;;;;;5026824;28;20033;-73
2021/04/19 06:38:18;;;;;;;20.08;12.00;;;8.50;99.90;;;;;;5028820;28;20026;-72
2021/04/19 06:40:45;;;;;;;19.23;12.02;;;8.50;99.90;;;;;;5021665;28;20496;-73
2021/04/19 06:43:12;;;;;;;17.58;11.27;;;8.50;99.90;;;;;;5029592;28;20025;-72
2021/04/19 06:45:40;;;;;;;18.00;11.27;;;8.60;99.90;;;;;;5027083;28;20025;-72
2021/04/19 06:48:08;;;;;;;18.33;12.23;;;8.50;99.90;;;;;;5027051;28;20030;-72
2021/04/19 06:50:34;;;;;;;18.27;11.60;;;8.60;99.90;;;;;;5031170;23;20038;-73
2021/04/19 06:53:00;;;;;;;18.67;11.75;;;8.70;99.90;;;;;;5040808;28;20082;-73
2021/04/19 06:55:32;;;;;;;16.95;11.75;;;8.70;99.90;;;;;;5034032;28;20551;-73
2021/04/19 06:57:59;;;;;;;16.92;11.00;;;8.70;99.90;;;;;;5041551;28;20122;-73
2021/04/19 07:00:27;;;;;;;16.45;10.88;;;8.70;99.90;;;;;;5044587;28;20039;-73
2021/04/19 07:02:54;;;;;;;17.20;11.25;;;8.80;99.90;;;;;;5045477;28;20187;-73
2021/04/19 07:05:25;;;;;;;21.83;11.93;;;8.80;99.90;;;;;;5045434;28;20037;-73
2021/04/19 07:07:59;;;;;;;16.92;11.93;;;8.80;99.90;;;;;;5046008;28;20116;-73
2021/04/19 07:10:25;;;;;;;15.70;10.77;;;8.90;99.90;;;;;;5045890;28;20202;-73
2021/04/19 07:12:52;;;;;;;19.13;11.90;;;9.00;99.90;;;;;;5044537;28;20095;-73
2021/04/19 07:15:20;;;;;;;15.63;11.13;;;9.10;99.90;;;;;;5046792;28;20400;-73
2021/04/19 07:17:49;;;;;;;18.08;12.48;;;9.10;99.90;;;;;;5046762;28;20508;-73
2021/04/19 07:20:15;;;;;;;19.25;12.15;;;8.90;99.90;;;;;;5041701;28;20061;-73
2021/04/19 07:22:41;;;;;;;18.85;12.45;;;8.90;99.90;;;;;;5041744;28;20028;-73
2021/04/19 07:25:07;;;;;;;18.23;12.02;;;8.90;99.90;;;;;;5041825;28;20036;-73
2021/04/19 07:27:37;;;;;;;20.17;13.00;;;8.90;99.90;;;;;;5044336;28;20040;-73
2021/04/19 07:30:04;;;;;;;22.65;14.13;;;9.00;99.90;;;;;;5044668;28;20025;-73
2021/04/19 07:32:37;;;;;;;20.67;12.95;;;9.10;99.90;;;;;;5045025;28;20028;-74
2021/04/19 07:35:05;;;;;;;22.45;14.18;;;9.10;99.90;;;;;;5042741;28;20029;-74
2021/04/19 07:37:32;;;;;;;21.02;14.40;;;9.30;99.90;;;;;;5042474;28;20082;-72
2021/04/19 07:39:57;;;;;;;21.85;13.57;;;9.40;99.90;;;;;;5044098;28;20112;-73
2021/04/19 07:42:23;;;;;;;24.90;14.70;;;9.60;99.90;;;;;;5047165;28;20514;-74
2021/04/19 07:44:53;;;;;;;23.23;14.27;;;9.80;99.90;;;;;;5044314;28;20383;-75
2021/04/19 07:47:31;;;;;;;24.33;14.55;;;9.90;99.90;;;;;;5039174;28;20032;-74
2021/04/19 07:50:11;;;;;;;24.05;15.50;;;9.90;99.90;;;;;;5033106;28;20116;-75
2021/04/19 07:52:49;;;;;;;24.30;15.50;;;9.90;99.90;;;;;;5039480;28;20395;-74
2021/04/19 07:55:20;;;;;;;23.40;14.98;;;10.10;99.90;;;;;;5042517;28;20641;-75
2021/04/19 07:57:47;;;;;;;24.75;15.32;;;10.10;99.90;;;;;;5043980;28;20029;-75
2021/04/19 08:00:26;;;;;;;20.90;13.90;;;10.10;99.90;;;;;;5047783;28;20116;-74
2021/04/19 08:03:01;;;;;;;22.70;15.13;;;10.00;99.90;;;;;;5051136;28;20059;-74
2021/04/19 08:05:34;;;;;;;24.20;15.48;;;9.80;99.90;;;;;;5046598;28;20035;-74
2021/04/19 08:08:00;;;;;;;24.20;16.23;;;9.70;99.90;;;;;;5045276;28;20032;-73
2021/04/19 08:10:26;;;;;;;23.95;15.68;;;9.50;99.90;;;;;;5049831;28;20032;-74
2021/04/19 08:13:05;;;;;;;25.52;16.83;;;9.40;99.90;;;;;;5046750;28;20025;-73
2021/04/19 08:15:31;;;;;;;25.58;16.38;;;9.60;99.90;;;;;;5048423;28;20108;-73
2021/04/19 08:18:01;;;;;;;26.30;16.38;;;10.00;99.90;;;;;;5045889;28;20078;-73
2021/04/19 08:20:26;;;;;;;27.63;16.33;;;10.10;99.90;;;;;;5046880;28;20029;-73
2021/04/19 08:23:01;;;;;;;23.55;15.50;;;10.10;99.90;;;;;;5048900;28;20036;-72
2021/04/19 08:25:27;;;;;;;25.15;15.93;;;10.10;99.90;;;;;;5048080;28;20021;-73
2021/04/19 08:28:15;;;;;;;24.38;15.93;;;10.00;99.90;;;;;;5044796;28;20025;-73
2021/04/19 08:30:43;;;;;;;25.25;15.30;;;9.90;99.90;;;;;;5047758;28;20040;-73
2021/04/19 08:33:10;;;;;;;24.73;14.95;;;10.00;99.90;;;;;;5046010;28;20060;-73
2021/04/19 08:35:36;;;;;;;27.08;16.08;;;10.00;99.90;;;;;;5046594;28;20056;-71
2021/04/19 08:38:03;;;;;;;23.63;15.55;;;10.10;99.90;;;;;;5047071;28;20055;-72
2021/04/19 08:40:31;;;;;;;23.15;15.43;;;10.40;99.90;;;;;;5042808;28;20613;-72
2021/04/19 08:42:58;;;;;;;21.63;14.70;;;10.70;99.90;;;;;;5043534;28;20422;-71
2021/04/19 08:45:25;;;;;;;23.33;14.75;;;11.00;99.90;;;;;;5046091;28;20452;-73
2021/04/19 08:47:52;;;;;;;23.35;15.07;;;11.00;99.90;;;;;;5047777;28;20041;-76
2021/04/19 08:50:21;;;;;;;23.60;15.05;;;11.10;99.90;;;;;;5047176;28;20101;-74
2021/04/19 08:52:48;;;;;;;21.13;13.65;;;11.30;99.90;;;;;;5041070;28;20055;-74
2021/04/19 08:55:14;;;;;;;19.70;13.55;;;11.40;99.90;;;;;;5045562;28;21324;-72
2021/04/19 08:57:44;;;;;;;19.88;13.70;;;11.50;99.90;;;;;;5039514;28;20067;-71
2021/04/19 09:00:12;;;;;;;20.45;14.45;;;11.80;99.90;;;;;;5043658;28;20055;-70
2021/04/19 09:02:38;;;;;;;25.45;14.38;;;11.80;99.90;;;;;;5046731;28;20048;-71
2021/04/19 09:05:10;;;;;;;23.45;13.82;;;11.90;99.90;;;;;;5048184;28;20545;-72
2021/04/19 09:07:38;;;;;;;21.75;13.43;;;11.90;99.90;;;;;;5048307;28;20104;-71
2021/04/19 09:10:06;;;;;;;27.77;18.05;;;11.90;99.90;;;;;;5047089;28;20116;-72
2021/04/19 09:12:32;;;;;;;21.10;14.48;;;11.90;99.90;;;;;;5045855;28;20029;-71
2021/04/19 09:15:33;;;;;;;23.05;15.68;;;11.90;99.90;;;;;;5047067;28;20361;-72
2021/04/19 09:18:08;;;;;;;21.70;14.00;;;11.80;99.90;;;;;;5047451;28;20022;-74
2021/04/19 09:20:50;;;;;;;21.13;13.65;;;11.80;99.90;;;;;;5047906;28;20408;-74
2021/04/19 09:23:19;;;;;;;22.92;14.23;;;12.00;99.90;;;;;;5045887;28;20491;-72
2021/04/19 09:25:45;;;;;;;18.85;13.75;;;12.10;99.90;;;;;;5047293;28;20108;-72
2021/04/19 09:28:10;;;;;;;23.35;14.63;;;12.20;99.90;;;;;;5042676;28;20627;-72
2021/04/19 09:30:43;;;;;;;22.95;14.30;;;12.30;99.90;;;;;;5045329;28;20044;-72
2021/04/19 09:33:09;;;;;;;22.05;14.80;;;12.50;99.90;;;;;;5047465;28;20460;-72
2021/04/19 09:35:42;;;;;;;24.65;13.80;;;12.50;99.90;;;;;;5041251;28;20029;-72
2021/04/19 09:38:15;;;;;;;21.30;14.38;;;12.60;99.90;;;;;;5040425;28;20059;-73
2021/04/19 09:40:54;;;;;;;19.98;13.60;;;12.70;99.90;;;;;;5039324;28;20109;-72
2021/04/19 09:43:28;;;;;;;21.38;13.50;;;12.70;99.90;;;;;;5046286;28;20096;-73
2021/04/19 09:45:55;;;;;;;22.10;14.25;;;12.60;99.90;;;;;;5043828;28;20059;-72
2021/04/19 09:48:30;;;;;;;22.52;14.73;;;12.70;99.90;;;;;;5047322;28;20029;-70
2021/04/19 09:51:02;;;;;;;21.42;13.93;;;12.90;99.90;;;;;;5036643;28;20084;-73
2021/04/19 09:53:28;;;;;;;21.08;13.68;;;13.00;99.90;;;;;;5045051;28;20044;-72
2021/04/19 09:55:55;;;;;;;21.33;12.70;;;13.20;99.90;;;;;;5040630;28;20119;-74
2021/04/19 09:58:21;;;;;;;22.98;13.80;;;13.30;99.90;;;;;;5044071;28;20104;-71
2021/04/19 10:00:56;;;;;;;19.58;12.90;;;13.20;99.90;;;;;;5038020;28;20560;-72
2021/04/19 10:03:22;;;;;;;21.77;13.80;;;13.20;99.90;;;;;;5036334;28;20061;-72
2021/04/19 10:05:50;;;;;;;18.40;12.95;;;13.20;99.90;;;;;;5040212;28;20033;-71
2021/04/19 10:08:18;;;;;;;20.90;13.45;;;13.30;99.90;;;;;;5040953;28;20056;-72
2021/04/19 10:10:49;;;;;;;21.90;13.70;;;13.40;99.90;;;;;;5046592;28;20045;-71
2021/04/19 10:13:15;;;;;;;23.23;13.95;;;13.60;99.90;;;;;;5051243;28;20025;-71
2021/04/19 10:15:40;;;;;;;19.02;11.98;;;13.70;99.90;;;;;;5047369;28;20484;-72
2021/04/19 10:18:10;;;;;;;21.70;12.32;;;13.80;99.90;;;;;;5048290;28;20037;-72
2021/04/19 10:20:37;;;;;;;20.58;12.55;;;13.80;99.90;;;;;;5049907;28;20199;-72
2021/04/19 10:23:14;;;;;;;21.02;13.15;;;13.80;99.90;;;;;;5047354;28;20100;-72
2021/04/19 10:25:46;;;;;;;23.77;13.45;;;13.90;99.90;;;;;;5045927;28;20064;-72
2021/04/19 10:28:11;;;;;;;20.15;12.80;;;14.10;99.90;;;;;;5045723;28;20025;-72
2021/04/19 10:30:37;;;;;;;20.48;13.25;;;14.10;99.90;;;;;;5045809;28;20557;-72
2021/04/19 10:33:03;;;;;;;20.05;13.57;;;14.20;99.90;;;;;;5048112;28;20500;-71
2021/04/19 10:35:32;;;;;;;19.60;11.80;;;14.30;99.90;;;;;;5040862;28;20025;-72
2021/04/19 10:37:59;;;;;;;18.00;11.20;;;14.30;99.90;;;;;;5038241;28;20029;-71
2021/04/19 10:40:25;;;;;;;21.70;11.38;;;14.30;99.90;;;;;;5046077;28;20357;-71
2021/04/19 10:42:53;;;;;;;20.85;11.55;;;14.50;99.90;;;;;;5048183;28;20053;-71
2021/04/19 10:45:19;;;;;;;18.08;11.88;;;14.70;99.90;;;;;;5038518;28;20078;-72
2021/04/19 10:47:44;;;;;;;21.10;12.07;;;15.00;99.90;;;;;;5038022;28;20048;-71
2021/04/19 10:50:11;;;;;;;27.88;12.48;;;15.50;99.90;;;;;;5040829;28;20032;-72
2021/04/19 10:52:36;;;;;;;24.38;12.48;;;15.80;99.90;;;;;;5043737;28;20068;-71
2021/04/19 10:55:08;;;;;;;19.02;12.02;;;15.80;99.90;;;;;;5042524;28;20528;-71
2021/04/19 10:57:35;;;;;;;21.83;11.40;;;15.70;99.90;;;;;;5046504;28;20037;-72
2021/04/19 11:00:03;;;;;;;17.75;11.07;;;15.70;99.90;;;;;;5039646;28;20044;-71
2021/04/19 11:02:30;;;;;;;17.35;11.30;;;15.60;99.90;;;;;;5040813;28;20029;-73
2021/04/19 11:04:57;;;;;;;17.52;11.25;;;15.60;99.90;;;;;;5043386;28;20036;-73
2021/04/19 11:07:35;;;;;;;19.25;11.25;;;15.60;99.90;;;;;;5048148;28;20055;-72
2021/04/19 11:10:17;;;;;;;18.00;10.95;;;15.70;99.90;;;;;;5043825;28;20083;-73
2021/04/19 11:13:23;;;;;;;18.13;10.00;;;15.80;99.90;;;;;;5043679;28;20033;-72
2021/04/19 11:15:58;;;;;;;18.52;10.88;;;15.90;99.90;;;;;;4958326;28;20050;-72
2021/04/19 11:18:28;;;;;;;21.88;11.52;;;15.80;99.90;;;;;;4980175;28;20038;-72
2021/04/19 11:20:55;;;;;;;17.53;10.07;;;16.10;99.90;;;;;;5046913;28;20110;-72
2021/04/19 11:23:31;;;;;;;16.70;10.02;;;16.60;99.90;;;;;;5047145;28;20111;-71
2021/04/19 11:25:59;;;;;;;15.13;9.70;;;17.00;99.90;;;;;;5045563;28;20032;-73
2021/04/19 11:28:30;;;;;;;18.00;10.45;;;18.00;95.80;;;;;;5044357;28;20078;-73
2021/04/19 11:30:57;;;;;;;;;;;18.70;91.60;;;;;;5042743;28;20033;-73
2021/04/19 11:33:25;;;;;;;15.85;9.70;;;19.40;91.90;;;;;;5047543;28;20003;-72
2021/04/19 11:36:01;;;;;;;16.08;10.43;;;19.80;89.70;;;;;;5044226;28;20503;-72
2021/04/19 11:38:27;;;;;;;17.50;11.32;;;20.10;81.70;;;;;;5042901;28;20115;-73
2021/04/19 11:40:57;;;;;;;16.40;10.85;;;20.50;80.10;;;;;;5041997;28;20535;-72
2021/04/19 11:43:27;;;;;;;18.00;10.43;;;20.60;79.20;;;;;;5036959;28;20045;-73
2021/04/19 11:46:02;;;;;;;18.95;10.43;;;20.60;75.30;;;;;;5046197;28;20028;-73
2021/04/19 11:48:29;;;;;;;22.23;11.68;;;20.80;73.00;;;;;;5043242;28;20021;-73
2021/04/19 11:50:56;;;;;;;15.90;10.80;;;21.30;72.50;;;;;;5044978;28;20530;-72
2021/04/19 11:53:29;;;;;;;15.40;10.48;;;21.70;70.80;;;;;;5039140;28;20033;-72
2021/04/19 11:55:56;;;;;;;16.63;10.48;;;22.00;68.00;;;;;;5044120;28;20487;-73
2021/04/19 11:58:22;;;;;;;18.95;10.80;;;22.40;66.60;;;;;;5047564;28;20037;-72
2021/04/19 12:00:48;;;;;;;15.63;9.98;;;22.60;68.50;;;;;;5045989;28;20545;-73
2021/04/19 12:03:16;;;;;;;15.23;10.57;;;22.50;63.70;;;;;;5044588;28;20074;-72
2021/04/19 12:05:43;;;;;;;15.48;10.73;;;22.20;65.30;;;;;;5043070;28;20028;-76
2021/04/19 12:08:09;;;;;;;14.57;10.25;;;22.20;65.70;;;;;;5044627;28;20029;-73
2021/04/19 12:10:39;;;;;;;16.15;10.25;;;22.30;64.40;;;;;;5049587;28;20369;-73
2021/04/19 12:13:05;;;;;;;14.75;9.68;;;21.90;60.80;;;;;;5046610;28;20060;-73
2021/04/19 12:15:31;;;;;;;18.80;10.10;;;20.90;64.80;;;;;;5050421;28;20514;-73
2021/04/19 12:17:56;;;;;;;13.23;9.45;;;21.70;70.10;;;;;;5045108;28;20032;-73
2021/04/19 12:20:22;;;;;;;15.65;9.55;;;22.00;60.60;;;;;;5041356;28;20072;-73
2021/04/19 12:22:48;;;;;;;13.85;9.02;;;22.40;65.00;;;;;;5039964;28;20385;-73
2021/04/19 12:25:14;;;;;;;13.23;8.60;;;22.70;60.60;;;;;;5049580;28;20056;-73
2021/04/19 12:27:40;;;;;;;16.92;11.02;;;23.10;58.00;;;;;;5043233;28;20028;-72
2021/04/19 12:30:07;;;;;;;16.05;11.73;;;23.40;60.00;;;;;;5036801;28;20033;-73
2021/04/19 12:32:33;;;;;;;17.08;12.40;;;22.80;60.70;;;;;;5049515;28;20134;-76
2021/04/19 12:34:58;;;;;;;18.73;12.60;;;22.20;63.30;;;;;;5049257;28;20108;-74
2021/04/19 12:37:24;;;;;;;18.15;11.98;;;22.00;63.30;;;;;;5049751;28;20028;-76
2021/04/19 12:39:49;;;;;;;16.40;11.98;;;22.40;66.40;;;;;;5049282;28;20078;-75
2021/04/19 12:42:15;;;;;;;18.00;12.45;;;23.10;64.90;;;;;;5049395;28;20037;-75
2021/04/19 12:44:40;;;;;;;12.60;9.60;;;23.50;62.30;;;;;;5047301;28;20086;-74
2021/04/19 12:47:06;;;;;;;16.30;8.25;;;23.80;61.60;;;;;;5048238;28;20035;-75